createdAt,value
2022-11-14T00:01:24.530Z,5.35
2022-11-14T00:06:46.093Z,5.36
2022-11-14T00:12:07.802Z,5.36
2022-11-14T00:17:30.412Z,5.38
2022-11-14T00:22:51.791Z,5.40
2022-11-14T00:28:13.728Z,5.43
2022-11-14T00:33:36.775Z,5.42
2022-11-14T00:38:58.314Z,5.43
2022-11-14T00:44:19.673Z,5.41
2022-11-14T00:49:42.491Z,5.40
2022-11-14T00:55:04.403Z,5.40
2022-11-14T01:00:25.700Z,5.40
2022-11-14T01:05:50.469Z,5.35
2022-11-14T01:11:12.824Z,5.34
2022-11-14T01:16:35.821Z,5.32
2022-11-14T01:22:01.783Z,5.27
2022-11-14T01:27:27.228Z,5.25
2022-11-14T01:32:48.585Z,5.20
2022-11-14T01:38:14.797Z,5.19
2022-11-14T01:43:36.943Z,5.11
2022-11-14T01:49:01.138Z,5.07
2022-11-14T01:54:26.472Z,5.08
2022-11-14T01:59:52.865Z,5.06
2022-11-14T02:05:16.595Z,5.04
2022-11-14T02:10:39.287Z,5.02
2022-11-14T02:16:00.727Z,4.97
2022-11-14T02:21:23.163Z,5.01
2022-11-14T02:26:44.691Z,5.01
2022-11-14T02:32:10.458Z,4.96
2022-11-14T02:37:33.743Z,4.91
2022-11-14T02:42:55.353Z,4.90
2022-11-14T02:48:16.736Z,4.91
2022-11-14T02:53:39.588Z,4.94
2022-11-14T02:59:01.067Z,4.92
2022-11-14T03:04:22.629Z,4.91
2022-11-14T03:09:45.422Z,4.83
2022-11-14T03:15:08.487Z,4.84
2022-11-14T03:20:29.946Z,4.83
2022-11-14T03:25:52.431Z,4.84
2022-11-14T03:31:14.601Z,4.84
2022-11-14T03:36:36.296Z,4.91
2022-11-14T03:41:58.930Z,4.96
2022-11-14T03:47:20.501Z,5.00
2022-11-14T03:52:41.971Z,4.97
2022-11-14T03:58:04.724Z,4.92
2022-11-14T04:03:26.506Z,4.90
2022-11-14T04:08:47.675Z,4.90
2022-11-14T04:14:10.895Z,4.93
2022-11-14T04:19:32.369Z,4.87
2022-11-14T04:24:53.739Z,4.90
2022-11-14T04:30:17.153Z,4.92
2022-11-14T04:35:38.733Z,4.98
2022-11-14T04:41:00.211Z,5.06
2022-11-14T04:46:22.980Z,5.21
2022-11-14T04:51:44.288Z,5.23
2022-11-14T04:57:05.775Z,5.18
2022-11-14T05:02:28.531Z,5.19
2022-11-14T05:07:49.954Z,5.22
2022-11-14T05:13:11.442Z,5.20
2022-11-14T05:18:34.249Z,5.20
2022-11-14T05:23:55.604Z,5.26
2022-11-14T05:29:17.049Z,5.32
2022-11-14T05:34:39.940Z,5.37
2022-11-14T05:40:01.506Z,5.37
2022-11-14T05:45:23.037Z,5.37
2022-11-14T05:50:45.815Z,5.29
2022-11-14T05:56:10.101Z,5.31
2022-11-14T06:01:31.256Z,5.23
2022-11-14T06:06:54.222Z,5.17
2022-11-14T06:12:15.581Z,5.17
2022-11-14T06:17:36.839Z,5.13
2022-11-14T06:22:59.664Z,5.11
2022-11-14T06:28:20.965Z,5.14
2022-11-14T06:33:42.711Z,5.15
2022-11-14T06:39:05.571Z,5.14
2022-11-14T06:44:30.676Z,5.10
2022-11-14T06:49:52.522Z,5.15
2022-11-14T06:55:16.288Z,5.22
2022-11-14T07:00:38.706Z,5.21
2022-11-14T07:06:00.523Z,5.21
2022-11-14T07:11:26.390Z,5.24
2022-11-14T07:16:48.017Z,5.26
2022-11-14T07:22:09.201Z,5.36
2022-11-14T07:27:31.999Z,5.47
2022-11-14T07:32:56.930Z,5.56
2022-11-14T07:38:18.188Z,5.70
2022-11-14T07:43:41.649Z,5.82
2022-11-14T07:49:02.792Z,5.93
2022-11-14T07:54:24.101Z,6.06
2022-11-14T07:59:46.858Z,6.18
2022-11-14T08:05:08.952Z,6.30
2022-11-14T08:10:33.597Z,6.39
2022-11-14T08:15:57.183Z,6.54
2022-11-14T08:21:18.382Z,6.63
2022-11-14T08:26:39.969Z,6.69
2022-11-14T08:32:02.653Z,6.81
2022-11-14T08:37:24.237Z,6.87
2022-11-14T08:42:45.584Z,6.94
2022-11-14T08:48:08.553Z,7.03
2022-11-14T08:53:30.768Z,7.13
2022-11-14T08:58:52.172Z,7.27
2022-11-14T09:04:15.147Z,7.36
2022-11-14T09:09:36.874Z,7.51
2022-11-14T09:14:58.184Z,7.66
2022-11-14T09:20:21.085Z,7.76
2022-11-14T09:25:42.736Z,7.95
2022-11-14T09:31:05.150Z,8.00
2022-11-14T09:36:27.897Z,8.09
2022-11-14T09:41:58.680Z,8.19
2022-11-14T09:47:23.757Z,8.30
2022-11-14T09:52:48.334Z,8.48
2022-11-14T09:58:13.943Z,8.67
2022-11-14T10:03:44.703Z,8.91
2022-11-14T10:09:30.475Z,9.18
2022-11-14T10:15:01.593Z,9.43
2022-11-14T10:20:27.667Z,9.67
2022-11-14T10:25:56.757Z,9.88
2022-11-14T10:31:24.231Z,10.02
2022-11-14T10:37:00.637Z,10.27
2022-11-14T10:42:27.116Z,10.42
2022-11-14T10:47:52.977Z,10.62
2022-11-14T10:53:21.131Z,10.77
2022-11-14T10:58:48.964Z,10.98
2022-11-14T11:04:20.333Z,11.21
2022-11-14T11:09:59.471Z,11.50
2022-11-14T11:15:23.936Z,11.82
2022-11-14T11:20:45.115Z,12.28
2022-11-14T11:26:09.010Z,12.92
2022-11-14T11:31:50.071Z,13.29
2022-11-14T11:37:16.628Z,13.27
2022-11-14T11:48:25.064Z,13.06
2022-11-14T11:53:49.512Z,12.98
2022-11-14T11:59:22.696Z,13.27
2022-11-14T12:04:45.557Z,13.55
2022-11-14T12:10:14.997Z,13.80
2022-11-14T12:15:45.782Z,13.99
2022-11-14T12:21:12.477Z,13.90
2022-11-14T12:26:47.015Z,14.02
2022-11-14T12:32:13.754Z,13.92
2022-11-14T12:37:39.030Z,13.96
2022-11-14T12:43:00.845Z,13.59
2022-11-14T12:48:24.372Z,13.36
2022-11-14T12:53:46.942Z,13.36
2022-11-14T12:59:26.145Z,13.51
2022-11-14T13:05:01.175Z,13.77
2022-11-14T13:10:30.842Z,13.79
2022-11-14T13:16:10.696Z,13.67
2022-11-14T13:21:47.155Z,13.23
2022-11-14T13:27:52.277Z,12.76
2022-11-14T13:33:09.334Z,12.41
2022-11-14T13:38:52.134Z,12.16
2022-11-14T13:44:33.708Z,11.99
2022-11-14T13:49:59.976Z,11.77
2022-11-14T13:55:22.813Z,11.58
2022-11-14T14:01:04.651Z,11.41
2022-11-14T14:06:35.902Z,11.36
2022-11-14T14:12:23.182Z,11.25
2022-11-14T14:17:54.007Z,11.11
2022-11-14T14:23:25.439Z,10.98
2022-11-14T14:28:53.323Z,10.89
2022-11-14T14:34:28.060Z,10.95
2022-11-14T14:39:59.813Z,10.95
2022-11-14T14:45:22.428Z,10.89
2022-11-14T14:50:50.716Z,10.78
2022-11-14T14:56:19.547Z,10.69
2022-11-14T15:01:40.885Z,10.58
2022-11-14T15:07:04.195Z,10.45
2022-11-14T15:12:27.554Z,10.35
2022-11-14T15:17:49.766Z,10.20
2022-11-14T15:23:21.715Z,10.00
2022-11-14T15:28:44.722Z,9.93
2022-11-14T15:34:08.030Z,9.82
2022-11-14T15:39:30.699Z,9.74
2022-11-14T15:44:52.343Z,9.70
2022-11-14T15:50:26.606Z,9.66
2022-11-14T15:55:49.402Z,9.54
2022-11-14T16:01:16.034Z,9.55
2022-11-14T16:06:37.309Z,9.48
2022-11-14T16:12:00.128Z,9.45
2022-11-14T16:17:21.455Z,9.34
2022-11-14T16:22:43.180Z,9.36
2022-11-14T16:28:06.153Z,9.38
2022-11-14T16:33:27.553Z,9.38
2022-11-14T16:38:52.259Z,9.26
2022-11-14T16:44:17.368Z,9.14
2022-11-14T16:49:38.933Z,9.13
2022-11-14T16:55:00.243Z,9.11
2022-11-14T17:00:23.312Z,9.10
2022-11-14T17:05:45.496Z,9.07
2022-11-14T17:11:09.572Z,9.07
2022-11-14T17:16:32.413Z,9.01
2022-11-14T17:21:53.857Z,8.95
2022-11-14T17:27:15.328Z,8.91
2022-11-14T17:32:38.030Z,8.86
2022-11-14T17:38:00.507Z,8.85
2022-11-14T17:43:21.935Z,8.79
2022-11-14T17:48:44.840Z,8.75
2022-11-14T17:54:06.239Z,8.74
2022-11-14T17:59:27.569Z,8.74
2022-11-14T18:04:50.365Z,8.73
2022-11-14T18:10:11.563Z,8.76
2022-11-14T18:15:33.536Z,8.81
2022-11-14T18:20:56.305Z,8.84
2022-11-14T18:26:18.410Z,8.80
2022-11-14T18:31:39.632Z,8.77
2022-11-14T18:37:03.041Z,8.75
2022-11-14T18:42:24.148Z,8.77
2022-11-14T18:47:45.671Z,8.77
2022-11-14T18:53:08.562Z,8.76
2022-11-14T18:58:30.042Z,8.77
2022-11-14T19:03:52.102Z,8.73
2022-11-14T19:09:18.237Z,8.76
2022-11-14T19:14:39.709Z,8.78
2022-11-14T19:20:01.312Z,8.67
2022-11-14T19:25:23.892Z,8.69
2022-11-14T19:30:45.481Z,8.70
2022-11-14T19:36:08.061Z,8.71
2022-11-14T19:41:31.151Z,8.60
2022-11-14T19:46:52.622Z,8.55
2022-11-14T19:52:14.133Z,8.40
2022-11-14T19:57:36.713Z,8.26
2022-11-14T20:02:58.373Z,8.22
2022-11-14T20:08:19.856Z,8.10
2022-11-14T20:13:44.010Z,8.06
2022-11-14T20:19:05.758Z,8.01
2022-11-14T20:24:26.937Z,8.00
2022-11-14T20:29:49.971Z,8.00
2022-11-14T20:35:11.208Z,8.03
2022-11-14T20:40:33.183Z,8.04
2022-11-14T20:46:01.083Z,8.06
2022-11-14T20:51:24.122Z,8.09
2022-11-14T20:56:45.528Z,8.00
2022-11-14T21:02:10.181Z,7.88
2022-11-14T21:07:31.597Z,7.92
2022-11-14T21:13:06.792Z,7.90
2022-11-14T21:18:30.264Z,7.78
2022-11-14T21:23:52.481Z,7.81
2022-11-14T21:29:14.921Z,7.66
2022-11-14T21:34:37.905Z,7.65
2022-11-14T21:39:59.012Z,7.68
2022-11-14T21:45:20.530Z,7.67
2022-11-14T21:50:43.239Z,7.65
2022-11-14T21:56:09.598Z,7.56
2022-11-14T22:01:44.963Z,7.54
2022-11-14T22:07:08.775Z,7.56
2022-11-14T22:12:30.528Z,7.44
2022-11-14T22:17:51.781Z,7.52
2022-11-14T22:23:14.679Z,7.59
2022-11-14T22:28:35.953Z,7.70
2022-11-14T22:33:58.771Z,7.73
2022-11-14T22:39:21.172Z,7.79
2022-11-14T22:44:42.691Z,7.88
2022-11-14T22:50:04.237Z,7.93
2022-11-14T22:55:26.823Z,7.98
2022-11-14T23:00:48.580Z,8.04
2022-11-14T23:06:10.373Z,8.06
2022-11-14T23:11:34.103Z,7.91
2022-11-14T23:16:55.234Z,7.81
2022-11-14T23:22:16.755Z,7.74
2022-11-14T23:27:39.747Z,7.67
2022-11-14T23:33:01.188Z,7.65
2022-11-14T23:38:22.695Z,7.61
2022-11-14T23:43:45.457Z,7.51
2022-11-14T23:49:07.062Z,7.52
2022-11-14T23:54:28.338Z,7.53
2022-11-14T23:59:51.281Z,7.45
